createdAt,value
2019-01-15T00:00:08.283Z,3.60
2019-01-15T00:01:09.397Z,3.20
2019-01-15T00:02:08.235Z,3.60
2019-01-15T00:03:08.213Z,3.20
2019-01-15T00:04:08.199Z,3.30
2019-01-15T00:05:08.168Z,3.10
2019-01-15T00:06:08.148Z,2.80
2019-01-15T00:07:08.126Z,3.40
2019-01-15T00:08:08.107Z,3.10
2019-01-15T00:09:08.082Z,3.10
2019-01-15T00:10:08.058Z,3.10
2019-01-15T00:11:08.030Z,4.10
2019-01-15T00:12:08.187Z,3.30
2019-01-15T00:13:07.988Z,3.70
2019-01-15T00:14:07.968Z,3.30
2019-01-15T00:15:07.944Z,3.90
2019-01-15T00:16:07.924Z,3.50
2019-01-15T00:17:07.902Z,3.00
2019-01-15T00:18:07.875Z,3.70
2019-01-15T00:19:07.857Z,3.40
2019-01-15T00:20:07.829Z,3.00
2019-01-15T00:21:07.809Z,3.50
2019-01-15T00:22:07.787Z,3.80
2019-01-15T00:23:07.762Z,3.40
2019-01-15T00:24:07.745Z,3.10
2019-01-15T00:25:07.719Z,3.80
2019-01-15T00:26:07.698Z,3.50
2019-01-15T00:27:07.671Z,3.00
2019-01-15T00:28:07.651Z,3.50
2019-01-15T00:29:07.629Z,3.80
2019-01-15T00:30:07.657Z,3.60
2019-01-15T00:31:07.583Z,3.20
2019-01-15T00:32:07.561Z,3.40
2019-01-15T00:33:07.537Z,4.10
2019-01-15T00:34:07.512Z,3.60
2019-01-15T00:35:07.494Z,3.00
2019-01-15T00:36:07.468Z,3.80
2019-01-15T00:37:07.447Z,3.60
2019-01-15T00:38:07.424Z,3.70
2019-01-15T00:39:07.400Z,3.70
2019-01-15T00:40:07.380Z,4.00
2019-01-15T00:41:07.360Z,3.60
2019-01-15T00:42:07.335Z,3.80
2019-01-15T00:43:07.312Z,3.50
2019-01-15T00:44:07.289Z,4.60
2019-01-15T00:45:07.265Z,4.00
2019-01-15T00:46:07.241Z,3.70
2019-01-15T00:47:07.219Z,4.20
2019-01-15T00:48:07.208Z,4.40
2019-01-15T00:49:07.178Z,3.50
2019-01-15T00:50:07.151Z,4.00
2019-01-15T00:51:07.130Z,4.40
2019-01-15T00:52:07.106Z,4.10
2019-01-15T00:53:07.086Z,3.90
2019-01-15T00:54:07.064Z,4.10
2019-01-15T00:55:07.041Z,4.50
2019-01-15T00:56:07.020Z,3.60
2019-01-15T00:57:06.998Z,3.60
2019-01-15T00:58:06.970Z,3.60
2019-01-15T00:59:06.952Z,3.50
2019-01-15T01:00:06.930Z,3.90
2019-01-15T01:01:06.904Z,3.90
2019-01-15T01:02:06.885Z,3.70
2019-01-15T01:03:06.862Z,4.20
2019-01-15T01:04:06.839Z,3.70
2019-01-15T01:05:06.819Z,4.00
2019-01-15T01:06:06.793Z,3.90
2019-01-15T01:07:06.772Z,3.70
2019-01-15T01:08:06.746Z,4.60
2019-01-15T01:09:06.725Z,3.60
2019-01-15T01:10:06.700Z,4.50
2019-01-15T01:11:06.678Z,4.40
2019-01-15T01:12:06.656Z,4.30
2019-01-15T01:13:06.635Z,3.70
2019-01-15T01:14:06.618Z,4.10
2019-01-15T01:15:06.589Z,4.60
2019-01-15T01:16:06.567Z,4.40
2019-01-15T01:17:06.548Z,4.50
2019-01-15T01:18:06.521Z,3.80
2019-01-15T01:19:06.498Z,4.10
2019-01-15T01:20:06.479Z,4.80
2019-01-15T01:21:06.466Z,4.00
2019-01-15T01:22:06.437Z,4.00
2019-01-15T01:23:06.413Z,4.50
2019-01-15T01:24:06.393Z,4.50
2019-01-15T01:25:06.370Z,4.20
2019-01-15T01:26:06.342Z,4.40
2019-01-15T01:27:06.320Z,3.80
2019-01-15T01:28:06.300Z,3.90
2019-01-15T01:29:06.279Z,4.20
2019-01-15T01:30:06.250Z,4.50
2019-01-15T01:31:06.231Z,4.60
2019-01-15T01:32:06.213Z,4.00
2019-01-15T01:33:06.188Z,4.30
2019-01-15T01:34:06.166Z,4.50
2019-01-15T01:35:06.144Z,4.60
2019-01-15T01:36:06.122Z,4.50
2019-01-15T01:37:07.420Z,4.40
2019-01-15T01:38:06.075Z,4.60
2019-01-15T01:39:06.056Z,4.20
2019-01-15T01:40:06.033Z,4.20
2019-01-15T01:41:06.009Z,4.10
2019-01-15T01:42:05.986Z,4.90
2019-01-15T01:43:05.964Z,4.70
2019-01-15T01:44:05.944Z,4.00
2019-01-15T01:45:05.921Z,4.50
2019-01-15T01:46:05.901Z,4.70
2019-01-15T01:47:05.877Z,4.60
2019-01-15T01:48:05.853Z,4.50
2019-01-15T01:49:05.835Z,5.60
2019-01-15T01:50:05.807Z,5.10
2019-01-15T01:51:05.784Z,4.00
2019-01-15T01:52:05.766Z,5.00
2019-01-15T01:53:05.741Z,4.80
2019-01-15T01:54:05.731Z,5.00
2019-01-15T01:55:05.700Z,5.20
2019-01-15T01:56:05.675Z,4.90
2019-01-15T01:57:05.652Z,5.30
2019-01-15T01:58:05.633Z,5.20
2019-01-15T01:59:05.617Z,5.20
2019-01-15T02:00:05.581Z,5.00
2019-01-15T02:01:05.562Z,4.80
2019-01-15T02:02:05.535Z,5.60
2019-01-15T02:03:05.515Z,5.20
2019-01-15T02:04:05.494Z,5.20
2019-01-15T02:05:05.471Z,4.90
2019-01-15T02:06:05.446Z,5.50
2019-01-15T02:07:05.428Z,5.60
2019-01-15T02:08:05.402Z,4.80
2019-01-15T02:09:05.381Z,6.10
2019-01-15T02:10:05.357Z,5.70
2019-01-15T02:11:05.338Z,5.60
2019-01-15T02:12:05.315Z,5.40
2019-01-15T02:13:05.293Z,5.30
2019-01-15T02:14:05.270Z,5.80
2019-01-15T02:15:05.246Z,6.10
2019-01-15T02:16:05.227Z,5.10
2019-01-15T02:17:05.205Z,6.20
2019-01-15T02:18:05.179Z,6.00
2019-01-15T02:19:05.160Z,5.40
2019-01-15T02:20:05.138Z,5.60
2019-01-15T02:21:05.115Z,5.60
2019-01-15T02:22:05.092Z,6.50
2019-01-15T02:23:05.070Z,6.20
2019-01-15T02:24:05.049Z,6.10
2019-01-15T02:25:05.025Z,5.90
2019-01-15T02:26:05.002Z,6.10
2019-01-15T02:27:04.981Z,6.00
2019-01-15T02:28:04.960Z,6.10
2019-01-15T02:29:04.938Z,6.00
2019-01-15T02:30:04.918Z,5.20
2019-01-15T02:31:04.891Z,5.50
2019-01-15T02:32:04.872Z,6.40
2019-01-15T02:33:04.848Z,5.50
2019-01-15T02:34:04.824Z,6.60
2019-01-15T02:35:04.803Z,5.80
2019-01-15T02:36:04.783Z,6.70
2019-01-15T02:37:04.765Z,5.80
2019-01-15T02:38:04.740Z,6.20
2019-01-15T02:39:04.714Z,5.20
2019-01-15T02:40:04.694Z,6.10
2019-01-15T02:41:04.670Z,5.90
2019-01-15T02:42:04.648Z,5.80
2019-01-15T02:43:04.627Z,5.10
2019-01-15T02:44:04.603Z,5.40
2019-01-15T02:45:04.582Z,5.30
2019-01-15T02:46:04.556Z,5.20
2019-01-15T02:47:04.535Z,5.70
2019-01-15T02:48:04.509Z,5.00
2019-01-15T02:49:04.489Z,5.70
2019-01-15T02:50:04.470Z,5.90
2019-01-15T02:51:04.443Z,6.20
2019-01-15T02:52:04.422Z,5.20
2019-01-15T02:53:04.400Z,5.30
2019-01-15T02:54:04.383Z,5.60
2019-01-15T02:55:04.358Z,5.30
2019-01-15T02:56:04.335Z,5.30
2019-01-15T02:57:04.312Z,5.10
2019-01-15T02:58:04.288Z,5.80
2019-01-15T02:59:04.267Z,5.80
2019-01-15T03:00:04.246Z,5.80
2019-01-15T03:01:04.224Z,5.40
2019-01-15T03:02:04.200Z,5.10
2019-01-15T03:03:04.180Z,4.70
2019-01-15T03:04:04.155Z,5.40
2019-01-15T03:05:04.134Z,5.50
2019-01-15T03:06:04.113Z,5.40
2019-01-15T03:07:04.091Z,5.20
2019-01-15T03:08:04.074Z,6.10
2019-01-15T03:09:04.047Z,5.10
2019-01-15T03:10:04.021Z,4.90
2019-01-15T03:11:04.001Z,4.90
2019-01-15T03:12:03.978Z,4.70
2019-01-15T03:13:03.957Z,5.10
2019-01-15T03:14:03.936Z,5.20
2019-01-15T03:15:03.909Z,5.40
2019-01-15T03:16:03.891Z,5.20
2019-01-15T03:17:03.867Z,4.90
2019-01-15T03:18:03.843Z,4.50
2019-01-15T03:19:03.822Z,5.20
2019-01-15T03:20:03.798Z,5.00
2019-01-15T03:21:03.777Z,4.70
2019-01-15T03:22:03.755Z,5.10
2019-01-15T03:23:03.734Z,4.80
2019-01-15T03:24:03.737Z,4.60
2019-01-15T03:25:03.688Z,5.00
2019-01-15T03:26:03.738Z,4.40
2019-01-15T03:27:03.642Z,4.50
2019-01-15T03:28:03.620Z,5.30
2019-01-15T03:29:03.608Z,5.10
2019-01-15T03:30:03.576Z,5.20
2019-01-15T03:31:03.559Z,5.20
2019-01-15T03:32:03.532Z,4.60
2019-01-15T03:33:03.509Z,5.00
2019-01-15T03:34:03.486Z,5.50
2019-01-15T03:35:03.463Z,4.60
2019-01-15T03:36:03.441Z,4.70
2019-01-15T03:37:03.421Z,5.40
2019-01-15T03:38:03.398Z,4.80
2019-01-15T03:39:03.377Z,5.40
2019-01-15T03:40:03.352Z,5.40
2019-01-15T03:41:03.334Z,6.10
2019-01-15T03:42:03.307Z,6.50
2019-01-15T03:43:04.224Z,5.10
2019-01-15T03:44:03.266Z,5.70
2019-01-15T03:45:04.996Z,5.90
2019-01-15T03:46:04.406Z,5.00
2019-01-15T03:47:03.196Z,5.30
2019-01-15T03:48:03.174Z,5.50
2019-01-15T03:49:03.151Z,5.40
2019-01-15T03:50:03.130Z,5.20
2019-01-15T03:51:03.111Z,5.60
2019-01-15T03:52:03.087Z,6.20
2019-01-15T03:53:03.064Z,5.30
2019-01-15T03:54:03.043Z,5.20
2019-01-15T03:55:03.019Z,5.20
2019-01-15T03:56:03.000Z,6.20
2019-01-15T03:57:02.973Z,4.90
2019-01-15T03:58:02.952Z,5.00
2019-01-15T03:59:02.929Z,5.20
2019-01-15T04:00:02.916Z,4.80
2019-01-15T04:01:02.891Z,5.30
2019-01-15T04:02:02.868Z,5.20
2019-01-15T04:03:02.848Z,5.30
2019-01-15T04:04:02.824Z,4.60
2019-01-15T04:05:02.801Z,5.20
2019-01-15T04:06:02.781Z,5.30
2019-01-15T04:07:02.756Z,5.20
2019-01-15T04:08:02.735Z,4.90
2019-01-15T04:09:02.716Z,5.20
2019-01-15T04:10:02.695Z,5.30
2019-01-15T04:11:02.693Z,4.80
2019-01-15T04:12:02.645Z,5.40
2019-01-15T04:13:02.625Z,5.60
2019-01-15T04:14:02.604Z,5.40
2019-01-15T04:15:02.584Z,5.60
2019-01-15T04:16:02.561Z,5.40
2019-01-15T04:17:02.537Z,5.60
2019-01-15T04:18:02.515Z,5.50
2019-01-15T04:19:02.495Z,6.30
2019-01-15T04:20:02.476Z,5.40
2019-01-15T04:21:02.457Z,6.20
2019-01-15T04:22:02.425Z,6.60
2019-01-15T04:23:02.405Z,6.00
2019-01-15T04:24:02.384Z,5.70
2019-01-15T04:25:02.363Z,5.50
2019-01-15T04:26:02.340Z,5.90
2019-01-15T04:27:02.316Z,6.20
2019-01-15T04:28:02.291Z,6.40
2019-01-15T04:29:02.271Z,5.80
2019-01-15T04:30:02.248Z,5.90
2019-01-15T04:31:02.224Z,5.80
2019-01-15T04:32:02.202Z,6.30
2019-01-15T04:33:02.181Z,6.30
2019-01-15T04:34:02.162Z,6.40
2019-01-15T04:35:02.140Z,5.50
2019-01-15T04:36:02.118Z,5.20
2019-01-15T04:37:02.093Z,6.70
2019-01-15T04:38:02.072Z,5.90
2019-01-15T04:39:02.049Z,6.00
2019-01-15T04:40:02.033Z,6.00
2019-01-15T04:41:02.007Z,6.20
2019-01-15T04:42:01.983Z,6.40
2019-01-15T04:43:01.958Z,5.80
2019-01-15T04:44:01.939Z,6.40
2019-01-15T04:45:01.919Z,6.00
2019-01-15T04:46:01.898Z,6.20
2019-01-15T04:47:01.874Z,6.90
2019-01-15T04:48:01.855Z,6.40
2019-01-15T04:49:02.792Z,6.30
2019-01-15T04:50:01.881Z,6.70
2019-01-15T04:51:01.786Z,6.80
2019-01-15T04:52:01.760Z,6.00
2019-01-15T04:53:01.746Z,6.30
2019-01-15T04:54:01.721Z,6.10
2019-01-15T04:55:01.698Z,5.80
2019-01-15T04:56:01.675Z,6.20
2019-01-15T04:57:01.653Z,6.50
2019-01-15T04:58:01.631Z,6.30
2019-01-15T04:59:01.618Z,7.20
2019-01-15T05:00:01.606Z,5.20
2019-01-15T05:01:01.567Z,6.30
2019-01-15T05:02:01.538Z,5.90
2019-01-15T05:03:01.523Z,6.30
2019-01-15T05:04:01.494Z,7.20
2019-01-15T05:05:01.475Z,6.00
2019-01-15T05:06:01.452Z,6.60
2019-01-15T05:07:01.433Z,6.70
2019-01-15T05:08:01.413Z,6.50
2019-01-15T05:09:01.391Z,6.50
2019-01-15T05:10:01.363Z,6.10
2019-01-15T05:11:01.341Z,6.40
2019-01-15T05:12:01.323Z,6.60
2019-01-15T05:13:01.316Z,7.70
2019-01-15T05:14:01.278Z,6.80
2019-01-15T05:15:01.253Z,6.80
2019-01-15T05:16:01.232Z,6.40
2019-01-15T05:17:01.214Z,6.80
2019-01-15T05:18:01.191Z,6.40
2019-01-15T05:19:01.164Z,6.90
2019-01-15T05:20:01.144Z,6.30
2019-01-15T05:21:01.126Z,6.60
2019-01-15T05:22:01.100Z,6.50
2019-01-15T05:23:01.078Z,6.60
2019-01-15T05:24:01.061Z,6.40
2019-01-15T05:25:01.036Z,6.80
2019-01-15T05:26:01.014Z,6.80
2019-01-15T05:27:00.992Z,6.90
2019-01-15T05:28:00.967Z,6.60
2019-01-15T05:29:00.949Z,6.60
2019-01-15T05:30:00.924Z,6.60
2019-01-15T05:31:00.911Z,6.60
2019-01-15T05:32:00.887Z,7.50
2019-01-15T05:33:00.862Z,7.00
2019-01-15T05:34:00.843Z,7.00
2019-01-15T05:35:00.817Z,7.30
2019-01-15T05:36:00.796Z,6.60
2019-01-15T05:37:00.772Z,7.20
2019-01-15T05:38:00.750Z,6.50
2019-01-15T05:39:00.731Z,6.80
2019-01-15T05:40:00.709Z,7.00
2019-01-15T05:41:00.689Z,7.00
2019-01-15T05:42:00.664Z,7.10
2019-01-15T05:43:00.651Z,8.10
2019-01-15T05:44:00.719Z,7.30
2019-01-15T05:45:00.603Z,7.10
2019-01-15T05:46:00.575Z,7.40
2019-01-15T05:47:00.556Z,7.50
2019-01-15T05:48:00.536Z,7.30
2019-01-15T05:49:00.514Z,7.50
2019-01-15T05:50:00.491Z,7.70
2019-01-15T05:51:00.471Z,7.50
2019-01-15T05:52:00.445Z,9.20
2019-01-15T05:53:00.425Z,7.80
2019-01-15T05:54:00.404Z,7.20
2019-01-15T05:55:00.391Z,8.10
2019-01-15T05:56:00.364Z,8.00
2019-01-15T05:57:00.340Z,9.00
2019-01-15T05:58:00.320Z,8.30
2019-01-15T05:59:00.293Z,8.10
2019-01-15T06:00:00.274Z,8.20
2019-01-15T06:01:00.253Z,8.10
2019-01-15T06:02:00.229Z,7.80
2019-01-15T06:03:00.205Z,7.90
2019-01-15T06:04:00.185Z,8.20
2019-01-15T06:05:00.191Z,8.30
2019-01-15T06:06:00.144Z,8.20
2019-01-15T06:07:00.120Z,9.20
2019-01-15T06:08:00.100Z,8.50
2019-01-15T06:09:00.082Z,8.60
2019-01-15T06:10:00.148Z,9.70
2019-01-15T06:11:00.036Z,9.80
2019-01-15T06:12:00.015Z,9.80
2019-01-15T06:12:59.999Z,10.10
2019-01-15T06:13:59.988Z,10.40
2019-01-15T06:14:59.957Z,9.90
2019-01-15T06:15:59.929Z,10.90
2019-01-15T06:16:59.907Z,10.00
2019-01-15T06:17:59.885Z,10.40
2019-01-15T06:18:59.862Z,10.60
2019-01-15T06:19:59.871Z,10.50
2019-01-15T06:20:59.821Z,11.20
2019-01-15T06:21:59.954Z,11.00
2019-01-15T06:22:59.781Z,10.40
2019-01-15T06:23:59.756Z,11.70
2019-01-15T06:24:59.735Z,11.60
2019-01-15T06:25:59.712Z,13.00
2019-01-15T06:26:59.690Z,13.30
2019-01-15T06:28:00.617Z,13.10
2019-01-15T06:28:59.649Z,12.40
2019-01-15T06:29:59.628Z,13.10
2019-01-15T06:30:59.601Z,13.40
2019-01-15T06:31:59.585Z,13.70
2019-01-15T06:32:59.558Z,13.60
2019-01-15T06:33:59.540Z,13.90
2019-01-15T06:34:59.563Z,14.30
2019-01-15T06:35:59.540Z,14.90
2019-01-15T06:36:59.478Z,14.90
2019-01-15T06:37:59.453Z,15.00
2019-01-15T06:38:59.434Z,15.70
2019-01-15T06:39:59.414Z,15.40
2019-01-15T06:40:59.393Z,15.40
2019-01-15T06:41:59.369Z,16.20
2019-01-15T06:42:59.345Z,17.30
2019-01-15T06:43:59.325Z,16.70
2019-01-15T06:44:59.306Z,16.90
2019-01-15T06:45:59.281Z,16.40
2019-01-15T06:46:59.262Z,18.30
2019-01-15T06:47:59.237Z,17.70
2019-01-15T06:48:59.217Z,17.70
2019-01-15T06:49:59.194Z,17.80
2019-01-15T06:50:59.175Z,18.00
2019-01-15T06:51:59.179Z,18.40
2019-01-15T06:52:59.139Z,17.80
2019-01-15T06:53:59.116Z,19.10
2019-01-15T06:54:59.093Z,18.20
2019-01-15T06:55:59.069Z,18.60
2019-01-15T06:56:59.047Z,20.00
2019-01-15T06:57:59.023Z,19.50
2019-01-15T06:58:59.002Z,19.00
2019-01-15T06:59:58.980Z,19.60
2019-01-15T07:00:58.969Z,19.80
2019-01-15T07:01:58.937Z,18.70
2019-01-15T07:02:58.919Z,20.00
2019-01-15T07:03:58.898Z,19.30
2019-01-15T07:04:58.878Z,21.20
2019-01-15T07:05:58.852Z,21.00
2019-01-15T07:06:58.833Z,19.90
2019-01-15T07:07:58.809Z,20.10
2019-01-15T07:08:58.790Z,20.20
2019-01-15T07:09:58.769Z,19.90
2019-01-15T07:10:58.744Z,20.80
2019-01-15T07:11:58.760Z,20.90
2019-01-15T07:12:58.708Z,19.70
2019-01-15T07:13:58.680Z,21.30
2019-01-15T07:14:58.663Z,20.50
2019-01-15T07:15:58.641Z,20.10
2019-01-15T07:16:58.619Z,20.40
2019-01-15T07:17:58.597Z,19.60
2019-01-15T07:18:58.574Z,20.10
2019-01-15T07:19:58.556Z,21.10
2019-01-15T07:20:58.534Z,21.20
2019-01-15T07:21:58.514Z,21.60
2019-01-15T07:22:58.492Z,22.00
2019-01-15T07:23:58.477Z,21.40
2019-01-15T07:24:58.450Z,21.10
2019-01-15T07:25:58.428Z,21.40
2019-01-15T07:26:58.404Z,22.30
2019-01-15T07:27:58.428Z,22.60
2019-01-15T07:28:58.366Z,21.80
2019-01-15T07:29:58.348Z,22.70
2019-01-15T07:30:58.325Z,23.60
2019-01-15T07:31:58.298Z,24.20
2019-01-15T07:32:58.281Z,23.80
2019-01-15T07:33:58.262Z,24.20
2019-01-15T07:34:58.240Z,23.70
2019-01-15T07:35:58.216Z,22.70
2019-01-15T07:36:58.200Z,25.70
2019-01-15T07:37:58.170Z,25.70
2019-01-15T07:38:58.153Z,24.50
2019-01-15T07:39:58.136Z,24.80
2019-01-15T07:40:58.112Z,25.30
2019-01-15T07:41:58.086Z,25.40
2019-01-15T07:42:58.068Z,26.00
2019-01-15T07:44:04.263Z,25.90
2019-01-15T07:44:58.026Z,26.90
2019-01-15T07:45:58.005Z,27.60
2019-01-15T07:46:57.985Z,28.00
2019-01-15T07:47:57.963Z,27.30
2019-01-15T07:48:57.945Z,28.80
2019-01-15T07:49:57.923Z,27.00
2019-01-15T07:50:57.901Z,29.00
2019-01-15T07:51:57.881Z,27.20
2019-01-15T07:52:57.856Z,28.50
2019-01-15T07:53:57.839Z,29.60
2019-01-15T07:54:57.817Z,27.00
2019-01-15T07:55:57.794Z,28.50
2019-01-15T07:56:57.779Z,27.80
2019-01-15T07:57:57.907Z,26.60
2019-01-15T07:58:57.729Z,27.30
2019-01-15T07:59:57.713Z,28.30
2019-01-15T08:00:57.691Z,28.10
2019-01-15T08:01:57.668Z,29.00
2019-01-15T08:02:57.650Z,27.70
2019-01-15T08:03:57.634Z,27.80
2019-01-15T08:04:57.607Z,29.50
2019-01-15T08:05:57.587Z,26.80
2019-01-15T08:06:57.567Z,28.60
2019-01-15T08:07:57.546Z,30.00
2019-01-15T08:08:57.524Z,29.50
2019-01-15T08:09:57.502Z,27.90
2019-01-15T08:10:57.478Z,29.00
2019-01-15T08:11:57.462Z,27.70
2019-01-15T08:12:57.441Z,28.40
2019-01-15T08:13:57.417Z,28.20
2019-01-15T08:14:57.396Z,28.80
2019-01-15T08:15:57.376Z,28.90
2019-01-15T08:16:57.360Z,28.30
2019-01-15T08:17:57.338Z,28.20
2019-01-15T08:18:57.316Z,27.10
2019-01-15T08:19:57.326Z,28.20
2019-01-15T08:20:57.277Z,27.90
2019-01-15T08:21:57.251Z,28.50
2019-01-15T08:23:57.215Z,27.00
2019-01-15T08:24:57.206Z,27.90
2019-01-15T08:25:57.185Z,28.70
2019-01-15T08:26:57.155Z,27.40
2019-01-15T08:27:57.136Z,26.90
2019-01-15T08:28:57.116Z,27.00
2019-01-15T08:30:18.090Z,26.20
2019-01-15T08:30:57.072Z,26.00
2019-01-15T08:31:57.053Z,26.90
2019-01-15T08:32:57.033Z,25.90
2019-01-15T08:33:57.021Z,25.60
2019-01-15T08:34:57.705Z,25.00
2019-01-15T08:36:17.974Z,26.30
2019-01-15T08:36:56.950Z,24.80
2019-01-15T08:37:56.940Z,24.80
2019-01-15T08:38:56.907Z,25.40
2019-01-15T08:39:56.915Z,26.50
2019-01-15T08:40:56.878Z,26.00
2019-01-15T08:42:17.855Z,25.40
2019-01-15T08:42:56.834Z,25.40
2019-01-15T08:43:56.809Z,26.60
2019-01-15T08:44:56.894Z,24.60
2019-01-15T08:45:56.777Z,25.10
2019-01-15T08:46:56.742Z,25.70
2019-01-15T08:48:17.739Z,26.10
2019-01-15T08:48:56.702Z,25.50
2019-01-15T08:49:56.687Z,25.90
2019-01-15T08:50:56.665Z,25.60
2019-01-15T08:51:56.654Z,26.50
2019-01-15T08:52:56.642Z,26.10
2019-01-15T08:54:17.605Z,25.70
2019-01-15T08:54:56.592Z,24.70
2019-01-15T08:55:56.674Z,25.10
2019-01-15T08:56:56.540Z,25.30
2019-01-15T08:57:56.523Z,26.10
2019-01-15T08:58:56.510Z,28.20
2019-01-15T09:00:17.482Z,25.40
2019-01-15T09:00:56.486Z,24.60
2019-01-15T09:01:56.436Z,27.10
2019-01-15T09:02:57.175Z,25.50
2019-01-15T09:03:56.407Z,25.90
2019-01-15T09:04:56.377Z,26.70
2019-01-15T09:06:17.362Z,26.60
2019-01-15T09:06:56.346Z,26.90
2019-01-15T09:07:56.331Z,25.10
2019-01-15T09:08:56.313Z,24.50
2019-01-15T09:09:56.276Z,25.20
2019-01-15T09:10:56.256Z,25.60
2019-01-15T09:12:17.248Z,24.00
2019-01-15T09:12:56.225Z,25.40
2019-01-15T09:13:56.202Z,25.10
2019-01-15T09:14:56.797Z,26.30
2019-01-15T09:15:56.166Z,25.80
2019-01-15T09:16:56.924Z,25.50
2019-01-15T09:18:18.038Z,24.30
2019-01-15T09:18:56.676Z,24.10
2019-01-15T09:19:56.076Z,25.10
2019-01-15T09:20:56.065Z,25.20
2019-01-15T09:21:56.046Z,25.20
2019-01-15T09:22:56.025Z,25.70
2019-01-15T09:24:17.125Z,26.40
2019-01-15T09:24:56.886Z,26.00
2019-01-15T09:25:56.024Z,25.10
2019-01-15T09:26:55.934Z,24.60
2019-01-15T09:27:55.913Z,24.50
2019-01-15T09:28:56.218Z,24.90
2019-01-15T09:30:16.945Z,25.20
2019-01-15T09:30:55.934Z,26.40
2019-01-15T09:31:55.836Z,24.60
2019-01-15T09:32:55.814Z,25.10
2019-01-15T09:33:55.870Z,25.40
2019-01-15T09:34:55.984Z,24.40
2019-01-15T09:36:17.682Z,24.90
2019-01-15T09:36:55.747Z,23.70
2019-01-15T09:37:55.736Z,24.30
2019-01-15T09:38:55.705Z,23.40
2019-01-15T09:39:55.681Z,24.20
2019-01-15T09:40:55.658Z,21.70
2019-01-15T09:42:16.647Z,22.40
2019-01-15T09:42:55.626Z,22.30
2019-01-15T09:43:55.599Z,23.20
2019-01-15T09:44:55.579Z,22.00
2019-01-15T09:45:55.560Z,22.00
2019-01-15T09:46:55.550Z,22.70
2019-01-15T09:48:16.527Z,22.20
2019-01-15T09:48:55.516Z,21.10
2019-01-15T09:49:55.479Z,19.60
2019-01-15T09:50:55.461Z,20.70
2019-01-15T09:51:55.454Z,19.70
2019-01-15T09:52:55.435Z,20.30
2019-01-15T09:54:16.403Z,19.70
2019-01-15T09:54:55.391Z,19.70
2019-01-15T09:55:55.363Z,20.60
2019-01-15T09:56:55.362Z,20.80
2019-01-15T09:57:55.335Z,19.40
2019-01-15T09:58:55.314Z,20.30
2019-01-15T10:00:16.297Z,19.10
2019-01-15T10:00:55.266Z,19.60
2019-01-15T10:01:55.255Z,19.20
2019-01-15T10:02:55.236Z,21.20
2019-01-15T10:03:55.212Z,19.50
2019-01-15T10:04:55.187Z,19.90
2019-01-15T10:06:16.182Z,19.80
2019-01-15T10:06:55.160Z,20.20
2019-01-15T10:07:55.139Z,19.10
2019-01-15T10:08:55.117Z,19.20
2019-01-15T10:09:55.100Z,19.10
2019-01-15T10:10:55.297Z,19.30
2019-01-15T10:12:16.057Z,19.70
2019-01-15T10:12:55.042Z,18.70
2019-01-15T10:13:55.034Z,19.60
2019-01-15T10:14:55.005Z,18.90
2019-01-15T10:15:54.978Z,19.00
2019-01-15T10:16:54.954Z,18.00
2019-01-15T10:18:15.966Z,17.60
2019-01-15T10:18:54.915Z,18.10
2019-01-15T10:19:54.910Z,17.60
2019-01-15T10:20:54.882Z,17.00
2019-01-15T10:21:54.864Z,16.90
2019-01-15T10:22:54.848Z,17.00
2019-01-15T10:24:15.902Z,16.70
2019-01-15T10:24:54.816Z,16.80
2019-01-15T10:25:54.779Z,16.80
2019-01-15T10:26:54.771Z,16.10
2019-01-15T10:27:54.769Z,17.20
2019-01-15T10:28:54.737Z,17.50
2019-01-15T10:30:15.747Z,16.90
2019-01-15T10:30:54.690Z,16.40
2019-01-15T10:31:54.662Z,16.50
2019-01-15T10:32:54.655Z,15.90
2019-01-15T10:33:54.821Z,14.30
2019-01-15T10:34:54.613Z,15.00
2019-01-15T10:36:15.597Z,15.10
2019-01-15T10:36:54.584Z,15.10
2019-01-15T10:37:54.549Z,14.60
2019-01-15T10:38:54.533Z,14.00
2019-01-15T10:39:54.505Z,14.90
2019-01-15T10:40:54.486Z,14.30
2019-01-15T10:42:15.477Z,13.90
2019-01-15T10:42:54.564Z,14.40
2019-01-15T10:43:54.443Z,14.60
2019-01-15T10:44:54.409Z,14.50
2019-01-15T10:45:54.399Z,14.40
2019-01-15T10:46:54.367Z,13.10
2019-01-15T10:48:15.359Z,14.00
2019-01-15T10:48:54.344Z,12.90
2019-01-15T10:49:54.321Z,13.70
2019-01-15T10:50:54.306Z,13.40
2019-01-15T10:51:54.278Z,13.40
2019-01-15T10:52:54.255Z,13.60
2019-01-15T10:54:15.295Z,12.50
2019-01-15T10:54:54.219Z,12.10
2019-01-15T10:55:54.215Z,12.70
2019-01-15T10:56:54.187Z,12.40
2019-01-15T10:57:58.436Z,13.50
2019-01-15T10:58:54.187Z,13.40
2019-01-15T11:00:15.132Z,12.80
2019-01-15T11:00:54.702Z,11.90
2019-01-15T11:01:54.090Z,11.30
2019-01-15T11:02:54.104Z,10.80
2019-01-15T11:03:54.047Z,11.60
2019-01-15T11:04:54.024Z,10.90
2019-01-15T11:06:15.004Z,10.70
2019-01-15T11:06:53.985Z,10.30
2019-01-15T11:07:53.992Z,10.40
2019-01-15T11:09:00.002Z,10.00
2019-01-15T11:09:53.951Z,10.90
2019-01-15T11:10:53.918Z,10.90
2019-01-15T11:12:14.909Z,10.80
2019-01-15T11:12:53.879Z,12.00
2019-01-15T11:13:53.848Z,10.50
2019-01-15T11:14:56.243Z,10.80
2019-01-15T11:15:53.815Z,10.10
2019-01-15T11:16:53.810Z,11.90
2019-01-15T11:18:14.775Z,12.30
2019-01-15T11:18:53.758Z,10.90
2019-01-15T11:19:53.743Z,10.60
2019-01-15T11:20:53.721Z,10.30
2019-01-15T11:21:54.268Z,10.80
2019-01-15T11:22:53.679Z,12.40
2019-01-15T11:24:14.671Z,10.70
2019-01-15T11:24:53.659Z,10.40
2019-01-15T11:25:53.639Z,10.00
2019-01-15T11:26:53.611Z,9.60
2019-01-15T11:27:53.592Z,9.70
2019-01-15T11:28:53.566Z,10.80
2019-01-15T11:30:14.557Z,10.80
2019-01-15T11:30:53.523Z,10.60
2019-01-15T11:31:53.523Z,10.80
2019-01-15T11:32:53.494Z,9.90
2019-01-15T11:33:53.480Z,9.40
2019-01-15T11:34:53.463Z,10.30
2019-01-15T11:36:14.447Z,9.70
2019-01-15T11:36:53.410Z,10.00
2019-01-15T11:37:53.409Z,10.40
2019-01-15T11:38:53.377Z,10.60
2019-01-15T11:39:53.362Z,10.00
2019-01-15T11:40:53.337Z,10.50
2019-01-15T11:42:14.318Z,10.60
2019-01-15T11:42:53.308Z,10.00
2019-01-15T11:43:53.285Z,11.10
2019-01-15T11:44:53.285Z,10.40
2019-01-15T11:45:53.261Z,11.40
2019-01-15T11:46:53.236Z,11.00
2019-01-15T11:48:14.238Z,11.40
2019-01-15T11:48:53.213Z,10.60
2019-01-15T11:49:53.176Z,13.10
2019-01-15T11:50:53.151Z,10.50
2019-01-15T11:51:53.144Z,11.20
2019-01-15T11:52:53.124Z,11.70
2019-01-15T11:54:14.109Z,10.90
2019-01-15T11:54:53.083Z,11.90
2019-01-15T11:55:53.062Z,10.00
2019-01-15T11:56:53.053Z,10.80
2019-01-15T11:57:53.027Z,11.30
2019-01-15T11:58:53.036Z,11.40
2019-01-15T12:00:13.994Z,12.80
2019-01-15T12:00:52.961Z,16.40
2019-01-15T12:01:52.955Z,12.80
2019-01-15T12:02:52.938Z,44.60
2019-01-15T12:03:52.907Z,16.20
2019-01-15T12:04:52.897Z,11.10
2019-01-15T12:06:13.884Z,10.90
2019-01-15T12:06:52.850Z,11.40
2019-01-15T12:07:52.841Z,12.40
2019-01-15T12:08:52.814Z,12.20
2019-01-15T12:09:52.795Z,11.70
2019-01-15T12:10:52.790Z,11.40
2019-01-15T12:12:13.768Z,11.20
2019-01-15T12:12:52.751Z,11.80
2019-01-15T12:13:52.720Z,11.80
2019-01-15T12:14:52.704Z,13.50
2019-01-15T12:15:52.690Z,12.10
2019-01-15T12:16:52.670Z,12.70
2019-01-15T12:18:13.655Z,12.20
2019-01-15T12:18:52.634Z,12.70
2019-01-15T12:19:52.607Z,12.50
2019-01-15T12:20:52.596Z,12.60
2019-01-15T12:21:52.579Z,14.20
2019-01-15T12:22:52.547Z,20.80
2019-01-15T12:24:13.642Z,19.90
2019-01-15T12:24:52.523Z,22.50
2019-01-15T12:25:52.504Z,18.80
2019-01-15T12:26:52.521Z,14.80
2019-01-15T12:27:52.453Z,13.40
2019-01-15T12:28:52.441Z,13.00
2019-01-15T12:30:13.436Z,13.40
2019-01-15T12:30:52.414Z,14.00
2019-01-15T12:31:52.389Z,13.30
2019-01-15T12:32:52.370Z,13.30
2019-01-15T12:33:52.344Z,13.60
2019-01-15T12:34:52.333Z,14.10
2019-01-15T12:36:13.316Z,13.70
2019-01-15T12:36:52.287Z,14.80
2019-01-15T12:37:52.279Z,13.50
2019-01-15T12:38:52.250Z,14.30
2019-01-15T12:39:52.229Z,13.70
2019-01-15T12:40:52.211Z,14.90
2019-01-15T12:42:13.197Z,13.60
2019-01-15T12:42:52.188Z,14.40
2019-01-15T12:43:52.153Z,15.10
2019-01-15T12:44:52.137Z,14.20
2019-01-15T12:45:52.120Z,14.50
2019-01-15T12:46:52.102Z,14.40
2019-01-15T12:48:13.087Z,14.50
2019-01-15T12:48:52.072Z,14.60
2019-01-15T12:49:52.039Z,14.40
2019-01-15T12:50:52.034Z,13.80
2019-01-15T12:51:52.003Z,15.20
2019-01-15T12:52:51.984Z,14.50
2019-01-15T12:54:13.023Z,14.30
2019-01-15T12:54:51.960Z,14.00
2019-01-15T12:55:51.939Z,15.20
2019-01-15T12:56:51.914Z,14.80
2019-01-15T12:57:51.908Z,14.90
2019-01-15T12:58:51.882Z,14.80
2019-01-15T13:00:12.887Z,14.70
2019-01-15T13:00:51.831Z,14.90
2019-01-15T13:01:51.831Z,14.90
2019-01-15T13:02:51.797Z,14.20
2019-01-15T13:03:51.787Z,13.90
2019-01-15T13:04:51.762Z,14.20